sensor_id;sensor_type;location;lat;lon;timestamp;pressure;altitude;pressure_sealevel;temperature;humidity
41246;BME280;53880;47.526;18.986;2023-04-07T00:01:00;99475.22;;;22.90;41.89
41246;BME280;53880;47.526;18.986;2023-04-07T00:03:17;99473.53;;;22.89;41.40
41246;BME280;53880;47.526;18.986;2023-04-07T00:05:35;99474.94;;;22.85;41.70
41246;BME280;53880;47.526;18.986;2023-04-07T00:07:55;99476.97;;;22.83;41.67
41246;BME280;53880;47.526;18.986;2023-04-07T00:10:12;99471.31;;;22.78;41.47
41246;BME280;53880;47.526;18.986;2023-04-07T00:12:27;99472.50;;;22.75;41.66
41246;BME280;53880;47.526;18.986;2023-04-07T00:14:45;99471.88;;;22.73;41.54
41246;BME280;53880;47.526;18.986;2023-04-07T00:17:00;99477.63;;;22.70;41.56
41246;BME280;53880;47.526;18.986;2023-04-07T00:19:15;99474.47;;;22.67;41.66
41246;BME280;53880;47.526;18.986;2023-04-07T00:21:30;99473.56;;;22.60;41.91
41246;BME280;53880;47.526;18.986;2023-04-07T00:23:48;99466.81;;;22.56;41.80
41246;BME280;53880;47.526;18.986;2023-04-07T00:26:03;99463.69;;;22.52;42.06
41246;BME280;53880;47.526;18.986;2023-04-07T00:28:20;99457.47;;;22.52;41.88
41246;BME280;53880;47.526;18.986;2023-04-07T00:30:40;99454.69;;;22.45;41.68
41246;BME280;53880;47.526;18.986;2023-04-07T00:32:58;99459.63;;;22.42;41.93
41246;BME280;53880;47.526;18.986;2023-04-07T00:35:13;99454.78;;;22.37;42.12
41246;BME280;53880;47.526;18.986;2023-04-07T00:37:28;99452.66;;;22.33;41.96
41246;BME280;53880;47.526;18.986;2023-04-07T00:39:47;99455.72;;;22.30;42.03
41246;BME280;53880;47.526;18.986;2023-04-07T00:42:05;99455.25;;;22.26;41.88
41246;BME280;53880;47.526;18.986;2023-04-07T00:44:23;99449.41;;;22.23;41.99
41246;BME280;53880;47.526;18.986;2023-04-07T00:46:42;99458.00;;;22.18;42.14
41246;BME280;53880;47.526;18.986;2023-04-07T00:48:57;99455.53;;;22.17;42.04
41246;BME280;53880;47.526;18.986;2023-04-07T00:51:13;99452.34;;;22.13;42.35
41246;BME280;53880;47.526;18.986;2023-04-07T00:53:36;99457.25;;;22.10;42.34
41246;BME280;53880;47.526;18.986;2023-04-07T00:55:53;99458.63;;;22.06;42.38
41246;BME280;53880;47.526;18.986;2023-04-07T00:58:13;99456.31;;;22.02;42.14
41246;BME280;53880;47.526;18.986;2023-04-07T01:00:39;99453.31;;;21.97;42.29
41246;BME280;53880;47.526;18.986;2023-04-07T01:03:09;99451.03;;;21.94;42.56
41246;BME280;53880;47.526;18.986;2023-04-07T01:05:41;99451.38;;;21.91;42.57
41246;BME280;53880;47.526;18.986;2023-04-07T01:08:11;99445.53;;;21.88;42.72
41246;BME280;53880;47.526;18.986;2023-04-07T01:10:43;99449.41;;;21.85;42.65
41246;BME280;53880;47.526;18.986;2023-04-07T01:13:22;99447.09;;;21.82;42.69
41246;BME280;53880;47.526;18.986;2023-04-07T01:15:54;99448.28;;;21.80;42.54
41246;BME280;53880;47.526;18.986;2023-04-07T01:18:21;99442.41;;;21.76;42.76
41246;BME280;53880;47.526;18.986;2023-04-07T01:20:41;99440.91;;;21.74;42.64
41246;BME280;53880;47.526;18.986;2023-04-07T01:23:05;99433.25;;;21.71;42.63
41246;BME280;53880;47.526;18.986;2023-04-07T01:30:55;99438.50;;;21.64;42.87
41246;BME280;53880;47.526;18.986;2023-04-07T01:33:17;99440.53;;;21.62;42.64
41246;BME280;53880;47.526;18.986;2023-04-07T01:35:36;99430.81;;;21.61;42.86
41246;BME280;53880;47.526;18.986;2023-04-07T01:37:57;99428.50;;;21.58;42.89
41246;BME280;53880;47.526;18.986;2023-04-07T01:40:18;99435.06;;;21.56;42.91
41246;BME280;53880;47.526;18.986;2023-04-07T01:42:41;99426.34;;;21.54;42.92
41246;BME280;53880;47.526;18.986;2023-04-07T01:45:01;99429.19;;;21.52;42.69
41246;BME280;53880;47.526;18.986;2023-04-07T01:47:18;99423.38;;;21.49;42.72
41246;BME280;53880;47.526;18.986;2023-04-07T01:49:35;99425.41;;;21.47;42.85
41246;BME280;53880;47.526;18.986;2023-04-07T01:51:54;99431.78;;;21.46;42.92
41246;BME280;53880;47.526;18.986;2023-04-07T01:54:14;99427.63;;;21.43;42.95
41246;BME280;53880;47.526;18.986;2023-04-07T01:56:30;99433.13;;;21.42;42.79
41246;BME280;53880;47.526;18.986;2023-04-07T01:58:51;99424.44;;;21.40;43.07
41246;BME280;53880;47.526;18.986;2023-04-07T02:01:12;99428.31;;;21.37;43.10
41246;BME280;53880;47.526;18.986;2023-04-07T02:03:45;99435.88;;;21.34;42.95
41246;BME280;53880;47.526;18.986;2023-04-07T02:06:07;99434.56;;;21.30;42.96
41246;BME280;53880;47.526;18.986;2023-04-07T02:08:31;99425.03;;;21.27;43.08
41246;BME280;53880;47.526;18.986;2023-04-07T02:10:50;99427.06;;;21.25;43.10
41246;BME280;53880;47.526;18.986;2023-04-07T02:13:15;99425.75;;;21.21;43.30
41246;BME280;53880;47.526;18.986;2023-04-07T02:15:33;99418.03;;;21.18;43.15
41246;BME280;53880;47.526;18.986;2023-04-07T02:17:52;99426.47;;;21.15;43.13
41246;BME280;53880;47.526;18.986;2023-04-07T02:20:11;99423.13;;;21.13;43.39
41246;BME280;53880;47.526;18.986;2023-04-07T02:22:29;99425.81;;;21.13;43.37
41246;BME280;53880;47.526;18.986;2023-04-07T02:24:50;99420.59;;;21.11;43.21
41246;BME280;53880;47.526;18.986;2023-04-07T02:27:16;99428.63;;;21.11;43.19
41246;BME280;53880;47.526;18.986;2023-04-07T02:29:33;99419.28;;;21.07;43.19
41246;BME280;53880;47.526;18.986;2023-04-07T02:31:49;99423.16;;;21.05;43.29
41246;BME280;53880;47.526;18.986;2023-04-07T02:34:06;99419.66;;;21.04;43.33
41246;BME280;53880;47.526;18.986;2023-04-07T02:36:21;99422.34;;;21.04;43.43
41246;BME280;53880;47.526;18.986;2023-04-07T02:38:39;99423.16;;;21.05;43.17
41246;BME280;53880;47.526;18.986;2023-04-07T02:40:55;99419.66;;;21.04;43.25
41246;BME280;53880;47.526;18.986;2023-04-07T02:43:10;99419.81;;;21.03;43.53
41246;BME280;53880;47.526;18.986;2023-04-07T02:45:30;99421.81;;;21.01;43.34
41246;BME280;53880;47.526;18.986;2023-04-07T02:47:45;99424.47;;;21.01;43.54
41246;BME280;53880;47.526;18.986;2023-04-07T02:50:01;99417.47;;;21.00;43.37
41246;BME280;53880;47.526;18.986;2023-04-07T02:52:24;99424.66;;;20.99;43.58
41246;BME280;53880;47.526;18.986;2023-04-07T02:54:45;99420.50;;;20.97;43.34
41246;BME280;53880;47.526;18.986;2023-04-07T02:57:07;99423.34;;;20.95;43.38
41246;BME280;53880;47.526;18.986;2023-04-07T02:59:27;99419.81;;;20.95;43.51
41246;BME280;53880;47.526;18.986;2023-04-07T03:01:45;99418.34;;;20.92;43.59
41246;BME280;53880;47.526;18.986;2023-04-07T03:04:07;99423.88;;;20.91;43.43
41246;BME280;53880;47.526;18.986;2023-04-07T03:06:25;99417.69;;;20.90;43.59
41246;BME280;53880;47.526;18.986;2023-04-07T03:09:00;99415.19;;;20.89;43.49
41246;BME280;53880;47.526;18.986;2023-04-07T03:11:15;99414.72;;;20.85;43.46
41246;BME280;53880;47.526;18.986;2023-04-07T03:13:33;99413.38;;;20.81;43.50
41246;BME280;53880;47.526;18.986;2023-04-07T03:15:51;99416.22;;;20.80;43.59
41246;BME280;53880;47.526;18.986;2023-04-07T03:18:11;99419.94;;;20.79;43.75
41246;BME280;53880;47.526;18.986;2023-04-07T03:20:27;99419.25;;;20.77;43.86
41246;BME280;53880;47.526;18.986;2023-04-07T03:22:49;99418.44;;;20.76;43.63
41246;BME280;53880;47.526;18.986;2023-04-07T03:25:10;99418.56;;;20.75;43.76
41246;BME280;53880;47.526;18.986;2023-04-07T03:27:25;99419.59;;;20.74;43.75
41246;BME280;53880;47.526;18.986;2023-04-07T03:29:42;99419.94;;;20.71;43.64
41246;BME280;53880;47.526;18.986;2023-04-07T03:32:03;99424.31;;;20.72;43.59
41246;BME280;53880;47.526;18.986;2023-04-07T03:34:18;99415.75;;;20.68;43.82
41246;BME280;53880;47.526;18.986;2023-04-07T03:36:36;99412.28;;;20.68;43.72
41246;BME280;53880;47.526;18.986;2023-04-07T03:38:53;99418.81;;;20.65;43.80
41246;BME280;53880;47.526;18.986;2023-04-07T03:41:14;99409.09;;;20.64;43.81
41246;BME280;53880;47.526;18.986;2023-04-07T03:43:32;99410.97;;;20.64;43.95
41246;BME280;53880;47.526;18.986;2023-04-07T03:45:52;99416.31;;;20.64;43.69
41246;BME280;53880;47.526;18.986;2023-04-07T03:48:11;99412.97;;;20.62;43.96
41246;BME280;53880;47.526;18.986;2023-04-07T03:50:35;99417.31;;;20.63;43.77
41246;BME280;53880;47.526;18.986;2023-04-07T03:53:02;99417.50;;;20.61;43.83
41246;BME280;53880;47.526;18.986;2023-04-07T03:55:21;99414.97;;;20.60;43.94
41246;BME280;53880;47.526;18.986;2023-04-07T03:57:48;99426.69;;;20.59;43.77
41246;BME280;53880;47.526;18.986;2023-04-07T04:00:07;99430.34;;;20.58;43.98
41246;BME280;53880;47.526;18.986;2023-04-07T04:02:48;99430.53;;;20.56;44.01
41246;BME280;53880;47.526;18.986;2023-04-07T04:05:09;99425.38;;;20.55;44.04
41246;BME280;53880;47.526;18.986;2023-04-07T04:07:27;99430.06;;;20.52;43.84
41246;BME280;53880;47.526;18.986;2023-04-07T04:09:46;99431.91;;;20.52;43.83
41246;BME280;53880;47.526;18.986;2023-04-07T04:12:05;99424.84;;;20.51;43.84
41246;BME280;53880;47.526;18.986;2023-04-07T04:14:25;99428.56;;;20.50;44.12
41246;BME280;53880;47.526;18.986;2023-04-07T04:16:49;99442.13;;;20.48;44.10
41246;BME280;53880;47.526;18.986;2023-04-07T04:19:23;99443.13;;;20.47;43.94
41246;BME280;53880;47.526;18.986;2023-04-07T04:21:39;99439.78;;;20.45;43.85
41246;BME280;53880;47.526;18.986;2023-04-07T04:23:55;99443.44;;;20.44;43.98
41246;BME280;53880;47.526;18.986;2023-04-07T04:26:15;99441.78;;;20.43;44.13
41246;BME280;53880;47.526;18.986;2023-04-07T04:28:35;99443.81;;;20.41;44.11
41246;BME280;53880;47.526;18.986;2023-04-07T04:30:56;99455.69;;;20.39;44.20
41246;BME280;53880;47.526;18.986;2023-04-07T04:33:14;99458.34;;;20.39;44.05
41246;BME280;53880;47.526;18.986;2023-04-07T04:35:48;99453.19;;;20.37;44.07
41246;BME280;53880;47.526;18.986;2023-04-07T04:38:09;99449.66;;;20.37;44.03
41246;BME280;53880;47.526;18.986;2023-04-07T04:40:25;99458.69;;;20.36;43.92
41246;BME280;53880;47.526;18.986;2023-04-07T04:42:43;99449.00;;;20.35;44.20
41246;BME280;53880;47.526;18.986;2023-04-07T04:45:00;99453.50;;;20.34;44.15
41246;BME280;53880;47.526;18.986;2023-04-07T04:47:16;99450.19;;;20.32;44.07
41246;BME280;53880;47.526;18.986;2023-04-07T04:49:37;99453.88;;;20.31;44.23
41246;BME280;53880;47.526;18.986;2023-04-07T04:51:54;99460.22;;;20.30;44.09
41246;BME280;53880;47.526;18.986;2023-04-07T04:54:12;99456.88;;;20.28;44.33
41246;BME280;53880;47.526;18.986;2023-04-07T04:56:30;99458.53;;;20.29;44.38
41246;BME280;53880;47.526;18.986;2023-04-07T04:58:45;99463.22;;;20.27;44.14
41246;BME280;53880;47.526;18.986;2023-04-07T05:01:21;99469.41;;;20.28;44.11
41246;BME280;53880;47.526;18.986;2023-04-07T05:03:45;99464.06;;;20.28;44.49
41246;BME280;53880;47.526;18.986;2023-04-07T05:06:08;99448.84;;;20.28;44.27
41246;BME280;53880;47.526;18.986;2023-04-07T05:08:23;99447.69;;;20.31;44.18
41246;BME280;53880;47.526;18.986;2023-04-07T05:10:40;99455.34;;;20.34;44.14
41246;BME280;53880;47.526;18.986;2023-04-07T05:13:03;99462.72;;;20.40;44.19
41246;BME280;53880;47.526;18.986;2023-04-07T05:15:19;99473.56;;;20.46;44.23
41246;BME280;53880;47.526;18.986;2023-04-07T05:17:40;99481.72;;;20.53;44.25
41246;BME280;53880;47.526;18.986;2023-04-07T05:19:59;99483.56;;;20.61;43.91
41246;BME280;53880;47.526;18.986;2023-04-07T05:22:23;99478.16;;;20.69;43.89
41246;BME280;53880;47.526;18.986;2023-04-07T05:24:41;99480.16;;;20.75;43.87
41246;BME280;53880;47.526;18.986;2023-04-07T05:26:58;99474.78;;;20.83;44.13
41246;BME280;53880;47.526;18.986;2023-04-07T05:29:16;99475.75;;;20.90;43.78
41246;BME280;53880;47.526;18.986;2023-04-07T05:31:33;99482.06;;;20.97;43.94
41246;BME280;53880;47.526;18.986;2023-04-07T05:33:56;99483.25;;;21.02;43.51
41246;BME280;53880;47.526;18.986;2023-04-07T05:36:18;99485.25;;;21.08;43.54
41246;BME280;53880;47.526;18.986;2023-04-07T05:38:35;99481.22;;;21.12;43.46
41246;BME280;53880;47.526;18.986;2023-04-07T05:41:02;99483.56;;;21.15;43.24
41246;BME280;53880;47.526;18.986;2023-04-07T05:43:22;99495.72;;;21.18;43.27
41246;BME280;53880;47.526;18.986;2023-04-07T05:45:42;99490.03;;;21.21;43.29
41246;BME280;53880;47.526;18.986;2023-04-07T05:48:00;99491.69;;;21.22;43.40
41246;BME280;53880;47.526;18.986;2023-04-07T05:50:25;99489.00;;;21.22;43.09
41246;BME280;53880;47.526;18.986;2023-04-07T05:52:44;99487.34;;;21.21;43.07
41246;BME280;53880;47.526;18.986;2023-04-07T05:55:11;99485.66;;;21.20;43.09
41246;BME280;53880;47.526;18.986;2023-04-07T05:57:30;99490.22;;;21.19;43.31
41246;BME280;53880;47.526;18.986;2023-04-07T05:59:51;99481.53;;;21.17;43.32
41246;BME280;53880;47.526;18.986;2023-04-07T06:02:09;99491.59;;;21.15;43.33
41246;BME280;53880;47.526;18.986;2023-04-07T06:04:28;99495.25;;;21.14;43.20
41246;BME280;53880;47.526;18.986;2023-04-07T06:06:43;99477.69;;;21.12;43.24
41246;BME280;53880;47.526;18.986;2023-04-07T06:08:58;99479.53;;;21.11;43.30
41246;BME280;53880;47.526;18.986;2023-04-07T06:11:14;99481.53;;;21.09;43.20
41246;BME280;53880;47.526;18.986;2023-04-07T06:13:33;99482.56;;;21.08;43.49
41246;BME280;53880;47.526;18.986;2023-04-07T06:15:49;99486.44;;;21.06;43.33
41246;BME280;53880;47.526;18.986;2023-04-07T06:18:06;99479.72;;;21.02;43.58
41246;BME280;53880;47.526;18.986;2023-04-07T06:20:26;99485.91;;;21.02;43.43
41246;BME280;53880;47.526;18.986;2023-04-07T06:22:45;99475.53;;;20.99;43.39
41246;BME280;53880;47.526;18.986;2023-04-07T06:25:02;99482.75;;;20.99;43.52
41246;BME280;53880;47.526;18.986;2023-04-07T06:27:24;99482.91;;;20.97;43.64
41246;BME280;53880;47.526;18.986;2023-04-07T06:29:47;99484.94;;;20.95;43.55
41246;BME280;53880;47.526;18.986;2023-04-07T06:32:06;99488.78;;;20.93;43.56
41246;BME280;53880;47.526;18.986;2023-04-07T06:34:24;99489.97;;;20.90;43.84
41246;BME280;53880;47.526;18.986;2023-04-07T06:36:42;99501.84;;;20.88;43.66
41246;BME280;53880;47.526;18.986;2023-04-07T06:39:00;99497.72;;;20.85;43.68
41246;BME280;53880;47.526;18.986;2023-04-07T06:41:21;99503.22;;;20.84;43.88
41246;BME280;53880;47.526;18.986;2023-04-07T06:43:43;99501.72;;;20.81;43.68
41246;BME280;53880;47.526;18.986;2023-04-07T06:45:59;99508.94;;;20.81;43.98
41246;BME280;53880;47.526;18.986;2023-04-07T06:48:14;99505.59;;;20.79;43.96
41246;BME280;53880;47.526;18.986;2023-04-07T06:50:29;99512.78;;;20.78;43.77
41246;BME280;53880;47.526;18.986;2023-04-07T06:52:45;99516.63;;;20.76;43.84
41246;BME280;53880;47.526;18.986;2023-04-07T06:55:05;99517.63;;;20.75;43.87
41246;BME280;53880;47.526;18.986;2023-04-07T06:57:21;99514.13;;;20.74;44.04
41246;BME280;53880;47.526;18.986;2023-04-07T06:59:41;99524.84;;;20.74;43.87
41246;BME280;53880;47.526;18.986;2023-04-07T07:02:01;99523.63;;;20.77;44.11
41246;BME280;53880;47.526;18.986;2023-04-07T07:04:23;99519.78;;;20.79;44.22
41246;BME280;53880;47.526;18.986;2023-04-07T07:06:44;99530.84;;;20.84;44.06
41246;BME280;53880;47.526;18.986;2023-04-07T07:09:02;99530.13;;;20.90;43.77
41246;BME280;53880;47.526;18.986;2023-04-07T07:11:19;99529.44;;;20.96;44.31
41246;BME280;53880;47.526;18.986;2023-04-07T07:13:37;99536.66;;;21.04;44.63
41246;BME280;53880;47.526;18.986;2023-04-07T07:15:55;99538.63;;;21.10;44.43
41246;BME280;53880;47.526;18.986;2023-04-07T07:18:12;99545.97;;;21.16;44.20
41246;BME280;53880;47.526;18.986;2023-04-07T07:20:27;99546.97;;;21.23;44.38
41246;BME280;53880;47.526;18.986;2023-04-07T07:22:42;99546.25;;;21.29;44.40
41246;BME280;53880;47.526;18.986;2023-04-07T07:27:31;99558.41;;;21.40;43.74
41246;BME280;53880;47.526;18.986;2023-04-07T07:29:51;99565.28;;;21.42;44.05
41246;BME280;53880;47.526;18.986;2023-04-07T07:32:09;99560.56;;;21.44;43.89
41246;BME280;53880;47.526;18.986;2023-04-07T07:34:23;99558.56;;;21.46;43.82
41246;BME280;53880;47.526;18.986;2023-04-07T07:36:41;99561.09;;;21.48;43.54
41246;BME280;53880;47.526;18.986;2023-04-07T07:39:01;99563.59;;;21.49;43.34
41246;BME280;53880;47.526;18.986;2023-04-07T07:41:24;99560.72;;;21.51;43.50
41246;BME280;53880;47.526;18.986;2023-04-07T07:43:41;99566.06;;;21.51;43.43
41246;BME280;53880;47.526;18.986;2023-04-07T07:46:02;99563.22;;;21.52;43.73
41246;BME280;53880;47.526;18.986;2023-04-07T07:48:19;99570.06;;;21.55;43.79
41246;BME280;53880;47.526;18.986;2023-04-07T07:50:40;99567.25;;;21.56;43.15
41246;BME280;53880;47.526;18.986;2023-04-07T07:52:58;99568.22;;;21.55;43.27
41246;BME280;53880;47.526;18.986;2023-04-07T07:55:13;99575.28;;;21.56;43.80
41246;BME280;53880;47.526;18.986;2023-04-07T07:57:29;99578.97;;;21.55;43.58
41246;BME280;53880;47.526;18.986;2023-04-07T07:59:49;99580.78;;;21.55;43.63
41246;BME280;53880;47.526;18.986;2023-04-07T08:02:07;99584.66;;;21.52;42.53
41246;BME280;53880;47.526;18.986;2023-04-07T08:04:22;99579.53;;;21.43;40.18
41246;BME280;53880;47.526;18.986;2023-04-07T08:06:40;99582.41;;;21.33;40.24
41246;BME280;53880;47.526;18.986;2023-04-07T08:08:58;99587.13;;;21.23;40.72
41246;BME280;53880;47.526;18.986;2023-04-07T08:11:15;99591.50;;;21.24;41.00
41246;BME280;53880;47.526;18.986;2023-04-07T08:13:34;99591.81;;;21.29;41.24
41246;BME280;53880;47.526;18.986;2023-04-07T08:15:49;99596.47;;;21.35;41.81
41246;BME280;53880;47.526;18.986;2023-04-07T08:18:06;99599.97;;;21.36;41.84
41246;BME280;53880;47.526;18.986;2023-04-07T08:20:24;99593.31;;;21.32;42.59
41246;BME280;53880;47.526;18.986;2023-04-07T08:22:45;99594.47;;;21.29;43.52
41246;BME280;53880;47.526;18.986;2023-04-07T08:25:00;99601.38;;;21.23;42.60
41246;BME280;53880;47.526;18.986;2023-04-07T08:27:15;99597.53;;;21.26;42.96
41246;BME280;53880;47.526;18.986;2023-04-07T08:29:32;99602.47;;;21.45;42.78
41246;BME280;53880;47.526;18.986;2023-04-07T08:31:47;99596.06;;;21.54;42.45
41246;BME280;53880;47.526;18.986;2023-04-07T08:34:07;99598.56;;;21.56;42.58
41246;BME280;53880;47.526;18.986;2023-04-07T08:36:25;99601.94;;;21.50;46.00
41246;BME280;53880;47.526;18.986;2023-04-07T08:38:41;99610.38;;;21.39;45.59
41246;BME280;53880;47.526;18.986;2023-04-07T08:41:06;99599.00;;;21.28;46.37
41246;BME280;53880;47.526;18.986;2023-04-07T08:43:30;99602.88;;;21.18;45.79
41246;BME280;53880;47.526;18.986;2023-04-07T08:45:49;99604.94;;;21.08;44.98
41246;BME280;53880;47.526;18.986;2023-04-07T08:48:17;99607.13;;;21.04;44.83
41246;BME280;53880;47.526;18.986;2023-04-07T08:50:35;99609.28;;;21.01;44.38
41246;BME280;53880;47.526;18.986;2023-04-07T08:52:56;99606.94;;;20.98;44.02
41246;BME280;53880;47.526;18.986;2023-04-07T08:55:16;99604.28;;;20.98;43.89
41246;BME280;53880;47.526;18.986;2023-04-07T08:57:31;99606.94;;;20.98;43.85
41246;BME280;53880;47.526;18.986;2023-04-07T08:59:50;99599.91;;;20.97;44.21
41246;BME280;53880;47.526;18.986;2023-04-07T09:02:05;99599.59;;;21.00;43.32
41246;BME280;53880;47.526;18.986;2023-04-07T09:04:23;99602.59;;;21.05;43.60
41246;BME280;53880;47.526;18.986;2023-04-07T09:06:39;99609.13;;;21.10;42.90
41246;BME280;53880;47.526;18.986;2023-04-07T09:09:00;99599.41;;;21.17;43.42
41246;BME280;53880;47.526;18.986;2023-04-07T09:11:21;99595.84;;;21.25;43.38
41246;BME280;53880;47.526;18.986;2023-04-07T09:13:40;99600.34;;;21.33;43.33
41246;BME280;53880;47.526;18.986;2023-04-07T09:15:55;99600.31;;;21.41;43.74
41246;BME280;53880;47.526;18.986;2023-04-07T09:18:10;99609.63;;;21.53;43.63
41246;BME280;53880;47.526;18.986;2023-04-07T09:20:25;99598.69;;;21.62;43.57
41246;BME280;53880;47.526;18.986;2023-04-07T09:22:44;99599.66;;;21.69;43.93
41246;BME280;53880;47.526;18.986;2023-04-07T09:25:19;99598.31;;;21.73;43.82
41246;BME280;53880;47.526;18.986;2023-04-07T09:27:38;99600.81;;;21.75;43.75
41246;BME280;53880;47.526;18.986;2023-04-07T09:30:12;99605.81;;;21.78;44.13
41246;BME280;53880;47.526;18.986;2023-04-07T09:32:36;99605.81;;;21.78;43.69
41246;BME280;53880;47.526;18.986;2023-04-07T09:34:58;99603.28;;;21.76;43.79
41246;BME280;53880;47.526;18.986;2023-04-07T09:37:24;99601.94;;;21.80;43.81
41246;BME280;53880;47.526;18.986;2023-04-07T09:39:51;99602.63;;;21.82;43.64
41246;BME280;53880;47.526;18.986;2023-04-07T09:42:12;99603.47;;;21.83;43.70
41246;BME280;53880;47.526;18.986;2023-04-07T09:44:27;99602.63;;;21.82;43.21
41246;BME280;53880;47.526;18.986;2023-04-07T09:47:05;99602.63;;;21.82;42.98
41246;BME280;53880;47.526;18.986;2023-04-07T09:49:28;99607.13;;;21.82;43.15
41246;BME280;53880;47.526;18.986;2023-04-07T09:51:55;99591.19;;;21.80;43.32
41246;BME280;53880;47.526;18.986;2023-04-07T09:54:34;99598.44;;;21.80;43.14
41246;BME280;53880;47.526;18.986;2023-04-07T09:56:52;99602.31;;;21.77;42.78
41246;BME280;53880;47.526;18.986;2023-04-07T09:59:12;99602.50;;;21.76;42.97
41246;BME280;53880;47.526;18.986;2023-04-07T10:01:28;99603.47;;;21.75;42.94
41246;BME280;53880;47.526;18.986;2023-04-07T10:03:47;99605.50;;;21.73;42.63
41246;BME280;53880;47.526;18.986;2023-04-07T10:06:04;99601.31;;;21.70;43.09
41246;BME280;53880;47.526;18.986;2023-04-07T10:08:22;99603.16;;;21.70;42.93
41246;BME280;53880;47.526;18.986;2023-04-07T10:10:41;99606.22;;;21.67;42.67
41246;BME280;53880;47.526;18.986;2023-04-07T10:13:04;99609.22;;;21.64;42.52
41246;BME280;53880;47.526;18.986;2023-04-07T10:15:20;99613.63;;;21.57;42.52
41246;BME280;53880;47.526;18.986;2023-04-07T10:17:39;99611.81;;;21.49;42.86
41246;BME280;53880;47.526;18.986;2023-04-07T10:19:57;99607.97;;;21.44;42.94
41246;BME280;53880;47.526;18.986;2023-04-07T10:22:16;99615.53;;;21.40;42.91
41246;BME280;53880;47.526;18.986;2023-04-07T10:27:08;99617.41;;;21.32;42.28
41246;BME280;53880;47.526;18.986;2023-04-07T10:29:32;99619.44;;;21.30;42.91
41246;BME280;53880;47.526;18.986;2023-04-07T10:31:48;99610.91;;;21.26;42.71
41246;BME280;53880;47.526;18.986;2023-04-07T10:34:06;99615.63;;;21.24;42.79
41246;BME280;53880;47.526;18.986;2023-04-07T10:36:21;99614.13;;;21.21;42.82
41246;BME280;53880;47.526;18.986;2023-04-07T10:38:39;99612.94;;;21.24;43.30
41246;BME280;53880;47.526;18.986;2023-04-07T10:40:58;99617.09;;;21.26;43.76
41246;BME280;53880;47.526;18.986;2023-04-07T10:43:38;99618.25;;;21.32;43.64
41246;BME280;53880;47.526;18.986;2023-04-07T10:45:55;99608.69;;;21.38;43.73
41246;BME280;53880;47.526;18.986;2023-04-07T10:48:21;99611.03;;;21.41;43.50
41246;BME280;53880;47.526;18.986;2023-04-07T10:50:36;99619.22;;;21.47;43.59
41246;BME280;53880;47.526;18.986;2023-04-07T10:53:14;99622.19;;;21.52;44.29
41246;BME280;53880;47.526;18.986;2023-04-07T10:55:44;99622.69;;;21.56;43.56
41246;BME280;53880;47.526;18.986;2023-04-07T11:00:42;99621.97;;;21.62;43.49
41246;BME280;53880;47.526;18.986;2023-04-07T11:03:09;99618.13;;;21.64;43.47
41246;BME280;53880;47.526;18.986;2023-04-07T11:05:29;99618.59;;;21.68;43.31
41246;BME280;53880;47.526;18.986;2023-04-07T11:07:47;99616.56;;;21.70;43.13
41246;BME280;53880;47.526;18.986;2023-04-07T11:10:13;99623.44;;;21.72;43.51
41246;BME280;53880;47.526;18.986;2023-04-07T11:12:30;99619.03;;;21.79;43.14
41246;BME280;53880;47.526;18.986;2023-04-07T11:14:50;99621.38;;;21.90;43.00
41246;BME280;53880;47.526;18.986;2023-04-07T11:17:14;99623.00;;;21.99;43.66
41246;BME280;53880;47.526;18.986;2023-04-07T11:19:49;99622.09;;;22.07;43.22
41246;BME280;53880;47.526;18.986;2023-04-07T11:22:16;99619.53;;;22.14;43.76
41246;BME280;53880;47.526;18.986;2023-04-07T11:24:34;99626.00;;;22.19;43.30
41246;BME280;53880;47.526;18.986;2023-04-07T11:26:54;99630.84;;;22.24;43.16
41246;BME280;53880;47.526;18.986;2023-04-07T11:29:12;99621.44;;;22.28;43.38
41246;BME280;53880;47.526;18.986;2023-04-07T11:31:37;99626.63;;;22.29;43.36
41246;BME280;53880;47.526;18.986;2023-04-07T11:36:11;99625.91;;;22.35;42.69
41246;BME280;53880;47.526;18.986;2023-04-07T11:38:34;99620.72;;;22.34;42.74
41246;BME280;53880;47.526;18.986;2023-04-07T11:40:50;99618.22;;;22.32;42.49
41246;BME280;53880;47.526;18.986;2023-04-07T11:43:29;99613.22;;;22.29;42.10
41246;BME280;53880;47.526;18.986;2023-04-07T11:45:45;99615.19;;;22.35;42.57
41246;BME280;53880;47.526;18.986;2023-04-07T11:48:04;99622.69;;;22.40;42.76
41246;BME280;53880;47.526;18.986;2023-04-07T11:50:40;99618.44;;;22.45;42.39
41246;BME280;53880;47.526;18.986;2023-04-07T11:53:03;99622.44;;;22.49;42.06
41246;BME280;53880;47.526;18.986;2023-04-07T11:55:22;99622.09;;;22.52;41.89
41246;BME280;53880;47.526;18.986;2023-04-07T11:57:42;99620.88;;;22.55;42.19
41246;BME280;53880;47.526;18.986;2023-04-07T12:00:11;99625.22;;;22.56;42.50
41246;BME280;53880;47.526;18.986;2023-04-07T12:02:30;99623.19;;;22.58;42.23
41246;BME280;53880;47.526;18.986;2023-04-07T12:04:55;99627.41;;;22.60;42.13
41246;BME280;53880;47.526;18.986;2023-04-07T12:07:13;99629.94;;;22.62;42.05
41246;BME280;53880;47.526;18.986;2023-04-07T12:09:32;99630.56;;;22.64;42.22
41246;BME280;53880;47.526;18.986;2023-04-07T12:11:54;99626.03;;;22.64;42.13
41246;BME280;53880;47.526;18.986;2023-04-07T12:14:13;99625.88;;;22.66;42.37
41246;BME280;53880;47.526;18.986;2023-04-07T12:16:39;99625.66;;;22.67;42.38
41246;BME280;53880;47.526;18.986;2023-04-07T12:18:54;99628.16;;;22.69;42.40
41246;BME280;53880;47.526;18.986;2023-04-07T12:21:11;99626.13;;;22.71;42.35
41246;BME280;53880;47.526;18.986;2023-04-07T12:23:32;99628.47;;;22.74;42.54
41246;BME280;53880;47.526;18.986;2023-04-07T12:38:36;99613.66;;;22.78;41.99
41246;BME280;53880;47.526;18.986;2023-04-07T12:40:51;99617.63;;;22.82;41.62